sensor_id;sensor_type;location;lat;lon;timestamp;pressure;altitude;pressure_sealevel;temperature;humidity
36828;BME280;22766;48.042;11.192;2023-03-01T00:00:01;95503.56;;;-0.54;100.00
36828;BME280;22766;48.042;11.192;2023-03-01T00:02:36;95500.06;;;-0.51;100.00
36828;BME280;22766;48.042;11.192;2023-03-01T00:05:04;95502.66;;;-0.53;100.00
36828;BME280;22766;48.042;11.192;2023-03-01T00:07:31;95493.50;;;-0.55;100.00
36828;BME280;22766;48.042;11.192;2023-03-01T00:09:57;95489.91;;;-0.51;100.00
36828;BME280;22766;48.042;11.192;2023-03-01T00:12:24;95480.88;;;-0.57;100.00
36828;BME280;22766;48.042;11.192;2023-03-01T00:14:51;95485.06;;;-0.56;100.00
36828;BME280;22766;48.042;11.192;2023-03-01T00:17:18;95484.31;;;-0.58;100.00
36828;BME280;22766;48.042;11.192;2023-03-01T00:19:44;95484.50;;;-0.61;100.00
36828;BME280;22766;48.042;11.192;2023-03-01T00:22:11;95483.56;;;-0.60;100.00
36828;BME280;22766;48.042;11.192;2023-03-01T00:24:38;95484.03;;;-0.52;100.00
36828;BME280;22766;48.042;11.192;2023-03-01T00:27:05;95486.31;;;-0.47;100.00
36828;BME280;22766;48.042;11.192;2023-03-01T00:29:31;95483.22;;;-0.52;100.00
36828;BME280;22766;48.042;11.192;2023-03-01T00:31:59;95479.84;;;-0.53;100.00
36828;BME280;22766;48.042;11.192;2023-03-01T00:34:26;95479.84;;;-0.53;100.00
36828;BME280;22766;48.042;11.192;2023-03-01T00:36:53;95477.84;;;-0.46;100.00
36828;BME280;22766;48.042;11.192;2023-03-01T00:39:20;95474.69;;;-0.51;100.00
36828;BME280;22766;48.042;11.192;2023-03-01T00:41:47;95468.00;;;-0.52;100.00
36828;BME280;22766;48.042;11.192;2023-03-01T00:44:13;95468.19;;;-0.57;100.00
36828;BME280;22766;48.042;11.192;2023-03-01T00:46:40;95463.66;;;-0.50;100.00
36828;BME280;22766;48.042;11.192;2023-03-01T00:49:07;95471.34;;;-0.52;100.00
36828;BME280;22766;48.042;11.192;2023-03-01T00:51:34;95463.75;;;-0.52;100.00
36828;BME280;22766;48.042;11.192;2023-03-01T00:54:02;95455.47;;;-0.55;100.00
36828;BME280;22766;48.042;11.192;2023-03-01T00:56:30;95463.75;;;-0.52;100.00
36828;BME280;22766;48.042;11.192;2023-03-01T00:58:58;95463.84;;;-0.53;100.00
36828;BME280;22766;48.042;11.192;2023-03-01T01:01:27;95455.47;;;-0.55;100.00
36828;BME280;22766;48.042;11.192;2023-03-01T01:04:00;95456.28;;;-0.55;100.00
36828;BME280;22766;48.042;11.192;2023-03-01T01:06:33;95458.16;;;-0.58;100.00
36828;BME280;22766;48.042;11.192;2023-03-01T01:09:00;95442.78;;;-0.55;100.00
36828;BME280;22766;48.042;11.192;2023-03-01T01:11:29;95449.28;;;-0.50;100.00
36828;BME280;22766;48.042;11.192;2023-03-01T01:13:57;95448.28;;;-0.47;100.00
36828;BME280;22766;48.042;11.192;2023-03-01T01:16:25;95435.59;;;-0.47;100.00
36828;BME280;22766;48.042;11.192;2023-03-01T01:18:52;95437.47;;;-0.51;100.00
36828;BME280;22766;48.042;11.192;2023-03-01T01:21:22;95433.53;;;-0.56;100.00
36828;BME280;22766;48.042;11.192;2023-03-01T01:23:50;95423.63;;;-0.61;100.00
36828;BME280;22766;48.042;11.192;2023-03-01T01:26:20;95421.16;;;-0.62;100.00
36828;BME280;22766;48.042;11.192;2023-03-01T01:28:49;95415.34;;;-0.64;100.00
36828;BME280;22766;48.042;11.192;2023-03-01T01:31:16;95413.53;;;-0.62;100.00
36828;BME280;22766;48.042;11.192;2023-03-01T01:33:44;95415.28;;;-0.63;100.00
36828;BME280;22766;48.042;11.192;2023-03-01T01:36:12;95412.59;;;-0.60;100.00
36828;BME280;22766;48.042;11.192;2023-03-01T01:38:39;95416.09;;;-0.62;100.00
36828;BME280;22766;48.042;11.192;2023-03-01T01:41:11;95411.09;;;-0.64;100.00
36828;BME280;22766;48.042;11.192;2023-03-01T01:43:44;95409.38;;;-0.63;100.00
36828;BME280;22766;48.042;11.192;2023-03-01T01:48:55;95404.97;;;-0.60;100.00
36828;BME280;22766;48.042;11.192;2023-03-01T01:51:27;95396.63;;;-0.62;100.00
36828;BME280;22766;48.042;11.192;2023-03-01T01:53:59;95392.38;;;-0.61;100.00
36828;BME280;22766;48.042;11.192;2023-03-01T01:56:28;95395.78;;;-0.62;100.00
36828;BME280;22766;48.042;11.192;2023-03-01T01:58:56;95392.50;;;-0.64;100.00
36828;BME280;22766;48.042;11.192;2023-03-01T02:01:23;95388.44;;;-0.67;100.00
36828;BME280;22766;48.042;11.192;2023-03-01T02:03:51;95389.84;;;-0.61;100.00
36828;BME280;22766;48.042;11.192;2023-03-01T02:08:49;95383.59;;;-0.71;100.00
36828;BME280;22766;48.042;11.192;2023-03-01T02:11:18;95383.59;;;-0.71;100.00
36828;BME280;22766;48.042;11.192;2023-03-01T02:13:47;95385.91;;;-0.67;100.00
36828;BME280;22766;48.042;11.192;2023-03-01T02:16:15;95387.69;;;-0.69;100.00
36828;BME280;22766;48.042;11.192;2023-03-01T02:18:43;95381.03;;;-0.71;100.00
36828;BME280;22766;48.042;11.192;2023-03-01T02:23:54;95372.56;;;-0.70;100.00
36828;BME280;22766;48.042;11.192;2023-03-01T02:26:41;95375.09;;;-0.70;100.00
36828;BME280;22766;48.042;11.192;2023-03-01T02:29:08;95374.28;;;-0.71;100.00
36828;BME280;22766;48.042;11.192;2023-03-01T02:31:35;95374.28;;;-0.71;100.00
36828;BME280;22766;48.042;11.192;2023-03-01T02:34:19;95371.72;;;-0.71;100.00
36828;BME280;22766;48.042;11.192;2023-03-01T02:36:50;95372.47;;;-0.69;100.00
36828;BME280;22766;48.042;11.192;2023-03-01T02:39:23;95374.84;;;-0.66;100.00
36828;BME280;22766;48.042;11.192;2023-03-01T02:41:54;95366.50;;;-0.68;100.00
36828;BME280;22766;48.042;11.192;2023-03-01T02:44:22;95371.66;;;-0.69;100.00
36828;BME280;22766;48.042;11.192;2023-03-01T02:46:52;95375.09;;;-0.70;100.00
36828;BME280;22766;48.042;11.192;2023-03-01T02:49:23;95372.69;;;-0.73;100.00
36828;BME280;22766;48.042;11.192;2023-03-01T02:57:25;95366.97;;;-0.77;100.00
36828;BME280;22766;48.042;11.192;2023-03-01T02:59:55;95372.63;;;-0.72;100.00
36828;BME280;22766;48.042;11.192;2023-03-01T03:02:26;95371.81;;;-0.72;100.00
36828;BME280;22766;48.042;11.192;2023-03-01T03:05:16;95360.09;;;-0.75;100.00
36828;BME280;22766;48.042;11.192;2023-03-01T03:07:46;95365.00;;;-0.72;100.00
36828;BME280;22766;48.042;11.192;2023-03-01T03:10:33;95366.50;;;-0.68;100.00
36828;BME280;22766;48.042;11.192;2023-03-01T03:13:08;95367.31;;;-0.67;100.00
36828;BME280;22766;48.042;11.192;2023-03-01T03:15:36;95363.38;;;-0.73;100.00
36828;BME280;22766;48.042;11.192;2023-03-01T03:18:09;95363.75;;;-0.80;100.00
36828;BME280;22766;48.042;11.192;2023-03-01T03:20:37;95368.66;;;-0.77;100.00
36828;BME280;22766;48.042;11.192;2023-03-01T03:23:06;95365.38;;;-0.79;100.00
36828;BME280;22766;48.042;11.192;2023-03-01T03:25:32;95362.06;;;-0.80;100.00
36828;BME280;22766;48.042;11.192;2023-03-01T03:28:05;95360.97;;;-0.76;100.00
36828;BME280;22766;48.042;11.192;2023-03-01T03:30:38;95362.84;;;-0.79;100.00
36828;BME280;22766;48.042;11.192;2023-03-01T03:33:05;95364.72;;;-0.83;100.00
36828;BME280;22766;48.042;11.192;2023-03-01T03:35:38;95362.34;;;-0.86;100.00
36828;BME280;22766;48.042;11.192;2023-03-01T03:38:07;95356.47;;;-0.86;100.00
36828;BME280;22766;48.042;11.192;2023-03-01T03:43:19;95352.34;;;-0.89;100.00
36828;BME280;22766;48.042;11.192;2023-03-01T03:45:47;95354.88;;;-0.89;100.00
36828;BME280;22766;48.042;11.192;2023-03-01T03:48:14;95354.84;;;-0.87;100.00
36828;BME280;22766;48.042;11.192;2023-03-01T03:50:41;95350.72;;;-0.90;100.00
36828;BME280;22766;48.042;11.192;2023-03-01T03:53:13;95350.84;;;-0.93;100.00
36828;BME280;22766;48.042;11.192;2023-03-01T03:55:40;95345.94;;;-0.96;100.00
36828;BME280;22766;48.042;11.192;2023-03-01T03:58:08;95345.06;;;-0.95;100.00
36828;BME280;22766;48.042;11.192;2023-03-01T04:00:39;95337.31;;;-0.92;100.00
36828;BME280;22766;48.042;11.192;2023-03-01T04:03:06;95338.13;;;-0.91;100.00
36828;BME280;22766;48.042;11.192;2023-03-01T04:05:34;95334.56;;;-0.87;100.00
36828;BME280;22766;48.042;11.192;2023-03-01T04:08:01;95338.81;;;-0.88;100.00
36828;BME280;22766;48.042;11.192;2023-03-01T04:10:34;95338.72;;;-0.86;100.00
36828;BME280;22766;48.042;11.192;2023-03-01T04:13:02;95336.41;;;-0.91;100.00
36828;BME280;22766;48.042;11.192;2023-03-01T04:15:30;95327.63;;;-0.84;100.00
36828;BME280;22766;48.042;11.192;2023-03-01T04:17:57;95328.41;;;-0.83;100.00
36828;BME280;22766;48.042;11.192;2023-03-01T04:20:30;95329.50;;;-0.87;100.00
36828;BME280;22766;48.042;11.192;2023-03-01T04:30:52;95326.13;;;-0.88;100.00
36828;BME280;22766;48.042;11.192;2023-03-01T04:33:20;95320.63;;;-0.96;100.00
36828;BME280;22766;48.042;11.192;2023-03-01T04:35:48;95329.91;;;-0.97;100.00
36828;BME280;22766;48.042;11.192;2023-03-01T04:38:18;95323.72;;;-0.91;100.00
36828;BME280;22766;48.042;11.192;2023-03-01T04:40:45;95319.56;;;-0.92;100.00
36828;BME280;22766;48.042;11.192;2023-03-01T04:43:12;95316.88;;;-0.89;100.00
36828;BME280;22766;48.042;11.192;2023-03-01T04:45:43;95317.69;;;-0.88;100.00
36828;BME280;22766;48.042;11.192;2023-03-01T04:48:09;95320.41;;;-0.91;100.00
36828;BME280;22766;48.042;11.192;2023-03-01T04:50:36;95326.44;;;-0.94;100.00
36828;BME280;22766;48.042;11.192;2023-03-01T04:53:03;95316.38;;;-0.96;100.00
36828;BME280;22766;48.042;11.192;2023-03-01T04:55:30;95316.59;;;-1.00;100.00
36828;BME280;22766;48.042;11.192;2023-03-01T04:57:58;95315.84;;;-1.02;100.00
36828;BME280;22766;48.042;11.192;2023-03-01T05:00:24;95314.06;;;-1.00;100.00
36828;BME280;22766;48.042;11.192;2023-03-01T05:02:57;95312.25;;;-0.98;100.00
36828;BME280;22766;48.042;11.192;2023-03-01T05:05:36;95313.00;;;-0.96;100.00
36828;BME280;22766;48.042;11.192;2023-03-01T05:08:07;95315.94;;;-1.04;100.00
36828;BME280;22766;48.042;11.192;2023-03-01T05:10:35;95305.94;;;-1.07;100.00
36828;BME280;22766;48.042;11.192;2023-03-01T05:13:03;95310.56;;;-0.98;100.00
36828;BME280;22766;48.042;11.192;2023-03-01T05:15:31;95302.44;;;-1.04;100.00
36828;BME280;22766;48.042;11.192;2023-03-01T05:17:59;95306.00;;;-1.08;100.00
36828;BME280;22766;48.042;11.192;2023-03-01T05:20:28;95297.59;;;-1.09;100.00
36828;BME280;22766;48.042;11.192;2023-03-01T05:22:58;95302.06;;;-1.14;100.00
36828;BME280;22766;48.042;11.192;2023-03-01T05:25:26;95300.94;;;-1.08;100.00
36828;BME280;22766;48.042;11.192;2023-03-01T05:27:53;95292.59;;;-1.10;100.00
36828;BME280;22766;48.042;11.192;2023-03-01T05:30:20;95290.31;;;-1.15;100.00
36828;BME280;22766;48.042;11.192;2023-03-01T05:32:49;95289.47;;;-1.15;100.00
36828;BME280;22766;48.042;11.192;2023-03-01T05:35:22;95290.22;;;-1.13;100.00
36828;BME280;22766;48.042;11.192;2023-03-01T05:37:49;95297.00;;;-1.14;100.00
36828;BME280;22766;48.042;11.192;2023-03-01T05:40:18;95295.50;;;-1.18;100.00
36828;BME280;22766;48.042;11.192;2023-03-01T05:42:52;95290.44;;;-1.18;100.00
36828;BME280;22766;48.042;11.192;2023-03-01T05:45:20;95299.59;;;-1.15;100.00
36828;BME280;22766;48.042;11.192;2023-03-01T05:47:48;95295.50;;;-1.18;100.00
36828;BME280;22766;48.042;11.192;2023-03-01T05:52:52;95295.94;;;-1.10;100.00
36828;BME280;22766;48.042;11.192;2023-03-01T05:55:23;95290.22;;;-1.13;100.00
36828;BME280;22766;48.042;11.192;2023-03-01T05:57:49;95293.97;;;-1.20;100.00
36828;BME280;22766;48.042;11.192;2023-03-01T06:00:19;95287.91;;;-1.18;100.00
36828;BME280;22766;48.042;11.192;2023-03-01T06:02:49;95289.94;;;-1.07;100.00
36828;BME280;22766;48.042;11.192;2023-03-01T06:05:16;95295.38;;;-1.15;100.00
36828;BME280;22766;48.042;11.192;2023-03-01T06:07:43;95295.22;;;-1.12;100.00
36828;BME280;22766;48.042;11.192;2023-03-01T06:10:12;95292.19;;;-1.18;100.00
36828;BME280;22766;48.042;11.192;2023-03-01T06:12:40;95294.91;;;-1.23;100.00
36828;BME280;22766;48.042;11.192;2023-03-01T06:15:08;95301.69;;;-1.23;100.00
36828;BME280;22766;48.042;11.192;2023-03-01T06:17:37;95297.53;;;-1.24;100.00
36828;BME280;22766;48.042;11.192;2023-03-01T06:20:10;95294.91;;;-1.23;100.00
36828;BME280;22766;48.042;11.192;2023-03-01T06:22:37;95301.47;;;-1.19;100.00
36828;BME280;22766;48.042;11.192;2023-03-01T06:25:04;95295.88;;;-1.25;100.00
36828;BME280;22766;48.042;11.192;2023-03-01T06:27:32;95299.31;;;-1.26;100.00
36828;BME280;22766;48.042;11.192;2023-03-01T06:29:58;95297.91;;;-1.32;100.00
36828;BME280;22766;48.042;11.192;2023-03-01T06:32:25;95302.72;;;-1.27;100.00
36828;BME280;22766;48.042;11.192;2023-03-01T06:34:52;95303.47;;;-1.25;100.00
36828;BME280;22766;48.042;11.192;2023-03-01T06:37:18;95304.22;;;-1.23;100.00
36828;BME280;22766;48.042;11.192;2023-03-01T06:39:45;95300.94;;;-1.25;100.00
36828;BME280;22766;48.042;11.192;2023-03-01T06:42:12;95302.50;;;-1.23;100.00
36828;BME280;22766;48.042;11.192;2023-03-01T06:44:38;95305.88;;;-1.22;100.00
36828;BME280;22766;48.042;11.192;2023-03-01T06:47:05;95303.06;;;-1.16;100.00
36828;BME280;22766;48.042;11.192;2023-03-01T06:49:32;95306.38;;;-1.16;100.00
36828;BME280;22766;48.042;11.192;2023-03-01T06:51:58;95306.38;;;-1.16;100.00
36828;BME280;22766;48.042;11.192;2023-03-01T06:54:25;95302.34;;;-1.20;100.00
36828;BME280;22766;48.042;11.192;2023-03-01T06:56:52;95306.53;;;-1.19;100.00
36828;BME280;22766;48.042;11.192;2023-03-01T06:59:19;95298.13;;;-1.19;100.00
36828;BME280;22766;48.042;11.192;2023-03-01T07:01:46;95303.84;;;-1.16;100.00
36828;BME280;22766;48.042;11.192;2023-03-01T07:04:13;95307.94;;;-1.13;100.00
36828;BME280;22766;48.042;11.192;2023-03-01T07:06:40;95305.22;;;-1.09;100.00
36828;BME280;22766;48.042;11.192;2023-03-01T07:09:06;95303.19;;;-1.19;100.00
36828;BME280;22766;48.042;11.192;2023-03-01T07:11:33;95310.28;;;-1.09;100.00
36828;BME280;22766;48.042;11.192;2023-03-01T07:14:00;95306.75;;;-1.06;100.00
36828;BME280;22766;48.042;11.192;2023-03-01T07:16:27;95312.81;;;-1.09;100.00
36828;BME280;22766;48.042;11.192;2023-03-01T07:18:53;95304.53;;;-1.12;100.00
36828;BME280;22766;48.042;11.192;2023-03-01T07:21:20;95307.78;;;-1.10;100.00
36828;BME280;22766;48.042;11.192;2023-03-01T07:23:48;95305.25;;;-1.10;100.00
36828;BME280;22766;48.042;11.192;2023-03-01T07:26:15;95307.56;;;-1.06;100.00
36828;BME280;22766;48.042;11.192;2023-03-01T07:28:42;95307.66;;;-1.07;100.00
36828;BME280;22766;48.042;11.192;2023-03-01T07:31:09;95303.78;;;-1.14;100.00
36828;BME280;22766;48.042;11.192;2023-03-01T07:33:35;95309.75;;;-1.15;100.00
36828;BME280;22766;48.042;11.192;2023-03-01T07:36:03;95305.78;;;-1.21;100.00
36828;BME280;22766;48.042;11.192;2023-03-01T07:38:30;95299.59;;;-1.15;100.00
36828;BME280;22766;48.042;11.192;2023-03-01T07:41:03;95297.66;;;-1.10;100.00
36828;BME280;22766;48.042;11.192;2023-03-01T07:43:30;95297.81;;;-1.13;100.00
36828;BME280;22766;48.042;11.192;2023-03-01T07:45:59;95298.66;;;-1.13;100.00
36828;BME280;22766;48.042;11.192;2023-03-01T07:48:27;95295.50;;;-1.01;100.00
36828;BME280;22766;48.042;11.192;2023-03-01T07:50:54;95299.22;;;-0.90;100.00
36828;BME280;22766;48.042;11.192;2023-03-01T07:53:24;95289.09;;;-1.08;100.00
36828;BME280;22766;48.042;11.192;2023-03-01T07:56:12;95286.84;;;-0.97;100.00
36828;BME280;22766;48.042;11.192;2023-03-01T07:58:41;95290.47;;;-0.85;100.00
36828;BME280;22766;48.042;11.192;2023-03-01T08:01:14;95286.47;;;-0.89;100.00
36828;BME280;22766;48.042;11.192;2023-03-01T08:03:41;95281.56;;;-0.92;100.00
36828;BME280;22766;48.042;11.192;2023-03-01T08:06:10;95282.88;;;-0.85;100.00
36828;BME280;22766;48.042;11.192;2023-03-01T08:08:37;95285.03;;;-0.77;100.00
36828;BME280;22766;48.042;11.192;2023-03-01T08:11:05;95287.03;;;-0.67;100.00
36828;BME280;22766;48.042;11.192;2023-03-01T08:13:33;95284.63;;;-0.70;100.00
36828;BME280;22766;48.042;11.192;2023-03-01T08:16:03;95282.50;;;-0.77;100.00
36828;BME280;22766;48.042;11.192;2023-03-01T08:18:31;95279.59;;;-0.87;100.00
36828;BME280;22766;48.042;11.192;2023-03-01T08:21:10;95287.72;;;-0.80;100.00
36828;BME280;22766;48.042;11.192;2023-03-01T08:23:37;95287.06;;;-0.84;100.00
36828;BME280;22766;48.042;11.192;2023-03-01T08:28:39;95290.66;;;-0.55;100.00
36828;BME280;22766;48.042;11.192;2023-03-01T08:33:48;95287.03;;;-0.67;100.00
36828;BME280;22766;48.042;11.192;2023-03-01T08:36:17;95290.69;;;-0.72;100.00
36828;BME280;22766;48.042;11.192;2023-03-01T08:38:44;95284.25;;;-0.62;100.00
36828;BME280;22766;48.042;11.192;2023-03-01T08:41:12;95283.84;;;-0.55;100.00
36828;BME280;22766;48.042;11.192;2023-03-01T08:43:39;95282.22;;;-0.56;100.00
36828;BME280;22766;48.042;11.192;2023-03-01T08:46:06;95273.34;;;-0.64;100.00
36828;BME280;22766;48.042;11.192;2023-03-01T08:48:32;95273.03;;;-0.58;100.00
36828;BME280;22766;48.042;11.192;2023-03-01T08:51:17;95270.19;;;-0.52;100.00
36828;BME280;22766;48.042;11.192;2023-03-01T08:53:47;95262.41;;;-0.49;100.00
36828;BME280;22766;48.042;11.192;2023-03-01T08:56:15;95261.13;;;-0.41;100.00
36828;BME280;22766;48.042;11.192;2023-03-01T08:58:46;95261.16;;;-0.25;100.00
36828;BME280;22766;48.042;11.192;2023-03-01T09:01:16;95258.78;;;-0.13;100.00
36828;BME280;22766;48.042;11.192;2023-03-01T09:03:43;95258.25;;;-0.04;100.00
36828;BME280;22766;48.042;11.192;2023-03-01T09:06:11;95260.16;;;0.09;100.00
36828;BME280;22766;48.042;11.192;2023-03-01T09:08:40;95260.56;;;0.01;100.00
36828;BME280;22766;48.042;11.192;2023-03-01T09:11:09;95253.28;;;-0.05;100.00
36828;BME280;22766;48.042;11.192;2023-03-01T09:13:37;95254.53;;;0.04;100.00
36828;BME280;22766;48.042;11.192;2023-03-01T09:16:05;95254.16;;;0.10;100.00
36828;BME280;22766;48.042;11.192;2023-03-01T09:18:33;95249.81;;;0.12;100.00
36828;BME280;22766;48.042;11.192;2023-03-01T09:21:06;95248.75;;;0.16;100.00
36828;BME280;22766;48.042;11.192;2023-03-01T09:23:37;95239.91;;;0.23;100.00
36828;BME280;22766;48.042;11.192;2023-03-01T09:26:06;95241.78;;;0.19;100.00
36828;BME280;22766;48.042;11.192;2023-03-01T09:28:33;95245.13;;;0.35;100.00
36828;BME280;22766;48.042;11.192;2023-03-01T09:31:01;95245.13;;;0.35;100.00
36828;BME280;22766;48.042;11.192;2023-03-01T09:33:29;95250.75;;;0.40;100.00
36828;BME280;22766;48.042;11.192;2023-03-01T09:35:58;95249.34;;;0.50;100.00
36828;BME280;22766;48.042;11.192;2023-03-01T09:38:25;95245.03;;;0.37;100.00
36828;BME280;22766;48.042;11.192;2023-03-01T09:40:52;95245.31;;;0.32;100.00
36828;BME280;22766;48.042;11.192;2023-03-01T09:43:43;95246.38;;;0.28;100.00
36828;BME280;22766;48.042;11.192;2023-03-01T09:46:14;95240.44;;;0.43;100.00
36828;BME280;22766;48.042;11.192;2023-03-01T09:48:45;95236.56;;;0.52;100.00
36828;BME280;22766;48.042;11.192;2023-03-01T09:51:19;95242.97;;;0.43;100.00
36828;BME280;22766;48.042;11.192;2023-03-01T09:53:48;95248.06;;;0.43;100.00
36828;BME280;22766;48.042;11.192;2023-03-01T09:56:27;95242.03;;;0.30;100.00
36828;BME280;22766;48.042;11.192;2023-03-01T10:09:52;95231.75;;;0.47;100.00
36828;BME280;22766;48.042;11.192;2023-03-01T10:12:23;95220.13;;;0.57;100.00
36828;BME280;22766;48.042;11.192;2023-03-01T10:20:32;95229.13;;;0.49;100.00
36828;BME280;22766;48.042;11.192;2023-03-01T10:23:00;95221.22;;;0.53;100.00
36828;BME280;22766;48.042;11.192;2023-03-01T10:25:47;95222.97;;;0.53;100.00
36828;BME280;22766;48.042;11.192;2023-03-01T10:28:31;95226.28;;;0.53;100.00
36828;BME280;22766;48.042;11.192;2023-03-01T10:31:04;95228.00;;;0.68;100.00
36828;BME280;22766;48.042;11.192;2023-03-01T10:33:32;95223.47;;;0.87;100.00
36828;BME280;22766;48.042;11.192;2023-03-01T10:36:01;95216.84;;;0.99;100.00
36828;BME280;22766;48.042;11.192;2023-03-01T10:38:31;95218.59;;;0.99;100.00
36828;BME280;22766;48.042;11.192;2023-03-01T10:41:04;95221.09;;;0.84;100.00
36828;BME280;22766;48.042;11.192;2023-03-01T10:43:46;95217.75;;;0.70;100.00
36828;BME280;22766;48.042;11.192;2023-03-01T10:46:26;95216.28;;;0.66;100.00
36828;BME280;22766;48.042;11.192;2023-03-01T10:49:19;95213.00;;;0.78;100.00
36828;BME280;22766;48.042;11.192;2023-03-01T10:51:51;95212.78;;;0.97;100.00
36828;BME280;22766;48.042;11.192;2023-03-01T10:54:29;95217.34;;;1.20;100.00
36828;BME280;22766;48.042;11.192;2023-03-01T10:56:59;95205.78;;;1.14;100.00
36828;BME280;22766;48.042;11.192;2023-03-01T11:07:26;95192.22;;;1.82;100.00
36828;BME280;22766;48.042;11.192;2023-03-01T11:09:53;95188.06;;;1.81;100.00
36828;BME280;22766;48.042;11.192;2023-03-01T11:12:20;95187.69;;;1.87;100.00
36828;BME280;22766;48.042;11.192;2023-03-01T11:14:53;95180.88;;;1.88;100.00
36828;BME280;22766;48.042;11.192;2023-03-01T11:17:31;95170.59;;;1.89;100.00
36828;BME280;22766;48.042;11.192;2023-03-01T11:25:14;95159.56;;;2.67;97.73
36828;BME280;22766;48.042;11.192;2023-03-01T11:27:43;95160.06;;;2.72;98.83
36828;BME280;22766;48.042;11.192;2023-03-01T11:35:36;95147.50;;;3.07;95.23
36828;BME280;22766;48.042;11.192;2023-03-01T11:38:21;95146.69;;;3.07;90.68
36828;BME280;22766;48.042;11.192;2023-03-01T11:44:20;95132.03;;;3.94;85.57
36828;BME280;22766;48.042;11.192;2023-03-01T11:55:45;95116.63;;;4.98;80.30
36828;BME280;22766;48.042;11.192;2023-03-01T11:58:25;95121.97;;;4.84;76.26
36828;BME280;22766;48.042;11.192;2023-03-01T12:01:17;95100.72;;;5.05;74.58
36828;BME280;22766;48.042;11.192;2023-03-01T12:06:57;95113.25;;;5.30;71.93
36828;BME280;22766;48.042;11.192;2023-03-01T12:09:47;95109.78;;;5.31;72.20
36828;BME280;22766;48.042;11.192;2023-03-01T12:12:43;95107.13;;;5.87;71.18
36828;BME280;22766;48.042;11.192;2023-03-01T12:23:35;95084.88;;;5.11;71.39
36828;BME280;22766;48.042;11.192;2023-03-01T12:26:23;95085.28;;;5.49;69.63
36828;BME280;22766;48.042;11.192;2023-03-01T12:29:07;95088.16;;;6.10;67.30
36828;BME280;22766;48.042;11.192;2023-03-01T12:46:01;95072.66;;;5.91;63.72
36828;BME280;22766;48.042;11.192;2023-03-01T12:51:10;95055.38;;;6.24;62.48
36828;BME280;22766;48.042;11.192;2023-03-01T12:53:48;95061.66;;;6.61;61.80
36828;BME280;22766;48.042;11.192;2023-03-01T12:56:19;95061.09;;;7.18;57.75
36828;BME280;22766;48.042;11.192;2023-03-01T12:59:26;95063.03;;;7.35;57.68
36828;BME280;22766;48.042;11.192;2023-03-01T13:20:21;95052.50;;;8.82;51.95
36828;BME280;22766;48.042;11.192;2023-03-01T13:23:02;95052.16;;;8.67;50.07
36828;BME280;22766;48.042;11.192;2023-03-01T13:25:29;95061.53;;;7.82;51.79
36828;BME280;22766;48.042;11.192;2023-03-01T13:34:01;95066.84;;;9.75;50.88
36828;BME280;22766;48.042;11.192;2023-03-01T13:39:05;95070.97;;;9.14;47.57
36828;BME280;22766;48.042;11.192;2023-03-01T13:41:54;95071.59;;;9.97;48.44
36828;BME280;22766;48.042;11.192;2023-03-01T13:44:25;95071.31;;;10.53;45.65
36828;BME280;22766;48.042;11.192;2023-03-01T13:49:52;95060.81;;;10.98;44.41
36828;BME280;22766;48.042;11.192;2023-03-01T13:52:37;95059.72;;;9.87;45.79
36828;BME280;22766;48.042;11.192;2023-03-01T13:55:29;95049.88;;;10.78;44.32
36828;BME280;22766;48.042;11.192;2023-03-01T13:57:59;95049.72;;;10.37;44.63
36828;BME280;22766;48.042;11.192;2023-03-01T14:00:30;95041.16;;;9.38;46.25
36828;BME280;22766;48.042;11.192;2023-03-01T14:05:34;95028.88;;;11.07;44.21
36828;BME280;22766;48.042;11.192;2023-03-01T14:08:04;95026.78;;;12.50;41.07
36828;BME280;22766;48.042;11.192;2023-03-01T14:10:47;95027.88;;;12.80;39.57
36828;BME280;22766;48.042;11.192;2023-03-01T14:13:33;95022.25;;;12.20;39.32
36828;BME280;22766;48.042;11.192;2023-03-01T14:16:39;95023.59;;;11.24;42.22
36828;BME280;22766;48.042;11.192;2023-03-01T14:24:31;95020.66;;;10.52;43.89
36828;BME280;22766;48.042;11.192;2023-03-01T14:27:01;95020.00;;;9.97;43.75
36828;BME280;22766;48.042;11.192;2023-03-01T14:29:37;95003.53;;;10.25;43.87
36828;BME280;22766;48.042;11.192;2023-03-01T14:32:20;94992.84;;;11.47;43.19
36828;BME280;22766;48.042;11.192;2023-03-01T14:34:49;94994.31;;;13.02;39.30
36828;BME280;22766;48.042;11.192;2023-03-01T14:37:21;94987.94;;;12.50;39.53
36828;BME280;22766;48.042;11.192;2023-03-01T14:39:48;94997.16;;;12.12;39.70
36828;BME280;22766;48.042;11.192;2023-03-01T14:42:16;94990.88;;;11.91;39.72
36828;BME280;22766;48.042;11.192;2023-03-01T14:44:45;94986.88;;;11.47;41.25
36828;BME280;22766;48.042;11.192;2023-03-01T14:47:20;94999.25;;;11.77;40.73
36828;BME280;22766;48.042;11.192;2023-03-01T14:49:56;94991.47;;;12.65;40.18
36828;BME280;22766;48.042;11.192;2023-03-01T14:52:31;94994.47;;;14.01;37.47
36828;BME280;22766;48.042;11.192;2023-03-01T14:55:02;94988.34;;;13.71;36.04
36828;BME280;22766;48.042;11.192;2023-03-01T14:57:30;94994.44;;;12.38;38.68
36828;BME280;22766;48.042;11.192;2023-03-01T15:00:05;94994.56;;;11.80;39.96
36828;BME280;22766;48.042;11.192;2023-03-01T15:02:32;94989.34;;;11.14;40.43
36828;BME280;22766;48.042;11.192;2023-03-01T15:05:01;94988.69;;;11.12;41.64
36828;BME280;22766;48.042;11.192;2023-03-01T15:07:31;94993.34;;;11.59;40.50
36828;BME280;22766;48.042;11.192;2023-03-01T15:10:00;94987.47;;;11.32;40.92
36828;BME280;22766;48.042;11.192;2023-03-01T15:14:55;94979.09;;;10.97;43.00
36828;BME280;22766;48.042;11.192;2023-03-01T15:17:32;94984.41;;;10.62;43.01
36828;BME280;22766;48.042;11.192;2023-03-01T15:20:03;94985.56;;;10.42;43.15
36828;BME280;22766;48.042;11.192;2023-03-01T15:22:30;94987.69;;;11.05;42.00
36828;BME280;22766;48.042;11.192;2023-03-01T15:24:57;94977.16;;;10.40;43.14
36828;BME280;22766;48.042;11.192;2023-03-01T15:27:25;94989.31;;;10.47;44.01
36828;BME280;22766;48.042;11.192;2023-03-01T15:29:56;94984.50;;;9.91;45.49